INFORMACIÓN METAR y TAF
METAR FOR GCLA
ADDS - METARS form results

(0050 UTC 05 July 2020)
Data provider http://aviationweather.gov/metar/data/
 
METAR text: GCLA 050030Z AUTO 36018KT 9999 FEW022 OVC030 22/17 Q1020
Conditions at: GCLA (LA PALMA AIRPORT, ES) observed 0030 UTC 05 July 2020
Temperature: 22.0°C (72°F)
Dewpoint: 17.0°C (63°F) [RH = 73%]
Pressure (altimeter): 30.12 inches Hg (1020.0 mb)
Winds: from the N (360 degrees) at 21 MPH (18 knots; 9.3 m/s)
Visibility: 6 or more miles (10+ km)
Ceiling: 3000 feet AGL
Clouds: few clouds at 2200 feet AGL
overcast cloud deck at 3000 feet AGL
Weather: no significant weather observed at this time

METAR text: GCLA 050000Z AUTO 36012G25KT 330V050 9999 BKN029 22/16 Q1020
Conditions at: GCLA (LA PALMA AIRPORT, ES) observed 0000 UTC 05 July 2020
Temperature: 22.0°C (72°F)
Dewpoint: 16.0°C (61°F) [RH = 69%]
Pressure (altimeter): 30.12 inches Hg (1020.0 mb)
Winds: from the N (360 degrees) at 14 MPH (12 knots; 6.2 m/s)
gusting to 29 MPH (25 knots; 12.9 m/s)
Visibility: 6 or more miles (10+ km)
Ceiling: 2900 feet AGL
Clouds: broken clouds at 2900 feet AGL
Weather: no significant weather observed at this time

Forecast for: GCLA (LA PALMA AIRPORT, ES)
Text: TAF GCLA 042000Z 0421/0521 36013KT 9999 BKN030 TX27/0514Z TN21/0506Z
Forecast period: 2100 UTC 04 July 2020 to 2100 UTC 05 July 2020
Forecast type: FROM: standard forecast or significant change
Winds: from the N (360 degrees) at 15 MPH (13 knots; 6.7 m/s)
Visibility: 6 or more miles 10+ km)
Ceiling: 3000 feet AGL
Clouds: broken clouds at 3000 feet AGL
Weather: no significant weather forecast for this period

 MAPA DE AEROPUERTO

 INFORMACIÓN DE PISTA
Pista 01 Longitud 7218 ft Ancho 148 ft
Elevación 103 ft Umbral desplazado 0 ft Rumbo de pista 359
Pista 19 Longitud 7218 ft Ancho 148 ft
Elevación 65 ft Umbral desplazado 0 ft Rumbo de pista 179

 FRECUANCIAS DEL AEROPUERTO
Tipo APP Nombre CANARIAS A Frecuencia 126.1 MHZ
Tipo ATIS Nombre INFO Frecuencia 118.6 MHZ
Tipo GND Nombre GND Frecuencia 121.8 MHZ
Tipo TWR Nombre TWR Frecuencia 118.9 MHZ

 RADIO AYUDAS DEL AEROPUERTO
Tipo DME Nombre La Palma Frecuencia 112400 KHZ
Tipo NDB Nombre La Palma Frecuencia 389 KHZ



Powered by Virtual Airlines Manager [v2.6.2]